createdAt,value
2018-06-19T00:00:47.746Z,17.48
2018-06-19T00:01:47.743Z,17.34
2018-06-19T00:02:47.743Z,17.44
2018-06-19T00:03:47.769Z,17.45
2018-06-19T00:04:47.746Z,17.34
2018-06-19T00:05:47.741Z,17.38
2018-06-19T00:06:47.740Z,17.42
2018-06-19T00:07:47.741Z,17.41
2018-06-19T00:08:47.736Z,17.45
2018-06-19T00:09:47.738Z,17.33
2018-06-19T00:10:47.737Z,17.29
2018-06-19T00:11:47.735Z,17.34
2018-06-19T00:12:47.735Z,17.39
2018-06-19T00:13:47.735Z,17.30
2018-06-19T00:14:47.732Z,17.31
2018-06-19T00:15:47.734Z,17.34
2018-06-19T00:16:47.730Z,17.33
2018-06-19T00:17:47.731Z,17.30
2018-06-19T00:18:47.730Z,17.30
2018-06-19T00:19:47.731Z,17.30
2018-06-19T00:20:47.728Z,17.30
2018-06-19T00:21:47.730Z,17.39
2018-06-19T00:22:47.731Z,17.48
2018-06-19T00:23:47.725Z,17.56
2018-06-19T00:24:47.723Z,17.57
2018-06-19T00:25:47.723Z,17.60
2018-06-19T00:26:47.725Z,17.70
2018-06-19T00:27:47.722Z,17.74
2018-06-19T00:28:47.720Z,17.70
2018-06-19T00:29:47.721Z,17.80
2018-06-19T00:30:47.721Z,17.87
2018-06-19T00:31:47.735Z,17.95
2018-06-19T00:32:47.717Z,18.00
2018-06-19T00:33:47.719Z,17.92
2018-06-19T00:34:47.716Z,18.00
2018-06-19T00:35:47.714Z,17.94
2018-06-19T00:36:47.711Z,17.89
2018-06-19T00:37:47.713Z,17.98
2018-06-19T00:38:47.714Z,17.94
2018-06-19T00:39:47.710Z,17.95
2018-06-19T00:40:47.711Z,17.92
2018-06-19T00:41:47.708Z,17.86
2018-06-19T00:42:47.707Z,17.90
2018-06-19T00:43:47.707Z,17.90
2018-06-19T00:44:47.704Z,17.87
2018-06-19T00:45:47.726Z,17.90
2018-06-19T00:46:47.709Z,17.83
2018-06-19T00:47:47.706Z,17.80
2018-06-19T00:48:47.700Z,17.72
2018-06-19T00:49:47.702Z,17.67
2018-06-19T00:50:47.701Z,17.59
2018-06-19T00:51:47.700Z,17.70
2018-06-19T00:52:47.697Z,17.70
2018-06-19T00:53:47.697Z,17.51
2018-06-19T00:54:47.695Z,17.54
2018-06-19T00:55:47.695Z,17.52
2018-06-19T00:56:47.696Z,17.51
2018-06-19T00:57:47.697Z,17.54
2018-06-19T00:58:47.697Z,17.52
2018-06-19T00:59:47.694Z,17.49
2018-06-19T01:00:47.691Z,17.48
2018-06-19T01:01:47.691Z,17.38
2018-06-19T01:02:47.688Z,17.42
2018-06-19T01:03:47.689Z,17.41
2018-06-19T01:04:47.687Z,17.42
2018-06-19T01:05:47.684Z,17.27
2018-06-19T01:06:47.685Z,17.26
2018-06-19T01:07:47.684Z,17.29
2018-06-19T01:08:47.682Z,17.29
2018-06-19T01:09:47.681Z,17.31
2018-06-19T01:10:47.681Z,17.20
2018-06-19T01:11:47.679Z,17.22
2018-06-19T01:12:47.680Z,17.24
2018-06-19T01:13:47.677Z,17.22
2018-06-19T01:14:47.677Z,17.19
2018-06-19T01:15:47.677Z,17.12
2018-06-19T01:16:47.675Z,17.11
2018-06-19T01:17:47.674Z,16.97
2018-06-19T01:18:47.676Z,16.97
2018-06-19T01:19:47.673Z,16.93
2018-06-19T01:20:47.669Z,16.86
2018-06-19T01:21:47.672Z,16.87
2018-06-19T01:22:47.668Z,16.86
2018-06-19T01:23:47.667Z,16.81
2018-06-19T01:24:47.666Z,16.72
2018-06-19T01:25:47.667Z,16.81
2018-06-19T01:26:47.666Z,16.66
2018-06-19T01:27:47.663Z,16.61
2018-06-19T01:28:47.663Z,16.65
2018-06-19T01:29:47.660Z,16.68
2018-06-19T01:30:47.658Z,16.72
2018-06-19T01:31:47.661Z,16.60
2018-06-19T01:32:47.657Z,16.58
2018-06-19T01:33:47.655Z,16.61
2018-06-19T01:34:47.656Z,16.64
2018-06-19T01:35:47.654Z,16.71
2018-06-19T01:36:47.653Z,16.69
2018-06-19T01:37:47.650Z,16.60
2018-06-19T01:38:47.650Z,16.60
2018-06-19T01:39:47.648Z,16.58
2018-06-19T01:40:47.647Z,16.54
2018-06-19T01:41:47.648Z,16.65
2018-06-19T01:42:47.644Z,16.47
2018-06-19T01:43:47.644Z,16.56
2018-06-19T01:44:47.640Z,16.64
2018-06-19T01:45:47.640Z,16.69
2018-06-19T01:46:47.639Z,16.58
2018-06-19T01:47:47.638Z,16.57
2018-06-19T01:48:47.636Z,16.72
2018-06-19T01:49:47.634Z,16.76
2018-06-19T01:50:47.634Z,16.75
2018-06-19T01:51:47.632Z,16.81
2018-06-19T01:52:47.630Z,16.79
2018-06-19T01:53:47.629Z,16.78
2018-06-19T01:54:47.636Z,16.75
2018-06-19T01:55:47.628Z,16.89
2018-06-19T01:56:47.625Z,16.93
2018-06-19T01:57:47.623Z,16.97
2018-06-19T01:58:47.622Z,17.09
2018-06-19T01:59:47.622Z,17.19
2018-06-19T02:00:47.620Z,17.06
2018-06-19T02:01:47.618Z,17.05
2018-06-19T02:02:47.617Z,17.22
2018-06-19T02:03:47.617Z,17.23
2018-06-19T02:04:47.615Z,17.31
2018-06-19T02:05:47.614Z,17.31
2018-06-19T02:06:47.610Z,17.31
2018-06-19T02:07:47.610Z,17.44
2018-06-19T02:08:47.608Z,17.38
2018-06-19T02:09:47.608Z,17.31
2018-06-19T02:10:47.609Z,17.31
2018-06-19T02:11:47.607Z,17.31
2018-06-19T02:12:47.602Z,17.39
2018-06-19T02:13:47.603Z,17.27
2018-06-19T02:14:47.599Z,17.31
2018-06-19T02:15:47.602Z,17.36
2018-06-19T02:16:47.598Z,17.33
2018-06-19T02:17:47.596Z,17.34
2018-06-19T02:18:47.597Z,17.27
2018-06-19T02:19:47.595Z,17.26
2018-06-19T02:20:47.594Z,17.16
2018-06-19T02:21:47.593Z,17.14
2018-06-19T02:22:47.592Z,17.20
2018-06-19T02:23:47.588Z,17.06
2018-06-19T02:24:47.589Z,17.06
2018-06-19T02:25:47.587Z,17.06
2018-06-19T02:26:47.587Z,17.11
2018-06-19T02:27:47.584Z,17.05
2018-06-19T02:28:47.583Z,16.97
2018-06-19T02:29:47.580Z,16.89
2018-06-19T02:30:47.579Z,16.72
2018-06-19T02:31:47.580Z,16.79
2018-06-19T02:32:47.578Z,16.69
2018-06-19T02:33:47.576Z,16.66
2018-06-19T02:34:47.573Z,16.65
2018-06-19T02:35:47.575Z,16.57
2018-06-19T02:36:47.572Z,16.56
2018-06-19T02:37:47.572Z,16.51
2018-06-19T02:38:47.572Z,16.53
2018-06-19T02:39:47.568Z,16.42
2018-06-19T02:40:47.573Z,16.51
2018-06-19T02:41:47.567Z,16.53
2018-06-19T02:42:47.565Z,16.56
2018-06-19T02:43:47.571Z,16.50
2018-06-19T02:44:47.562Z,16.41
2018-06-19T02:45:47.565Z,16.42
2018-06-19T02:46:47.561Z,16.39
2018-06-19T02:47:47.559Z,16.38
2018-06-19T02:48:47.557Z,16.42
2018-06-19T02:49:47.554Z,16.35
2018-06-19T02:50:47.552Z,16.36
2018-06-19T02:51:47.550Z,16.35
2018-06-19T02:52:47.550Z,16.28
2018-06-19T02:53:47.552Z,16.36
2018-06-19T02:54:47.551Z,16.36
2018-06-19T02:55:47.554Z,16.42
2018-06-19T02:56:47.543Z,16.43
2018-06-19T02:57:47.561Z,16.51
2018-06-19T02:58:47.541Z,16.46
2018-06-19T02:59:47.545Z,16.54
2018-06-19T03:00:47.537Z,16.56
2018-06-19T03:01:47.536Z,16.53
2018-06-19T03:02:47.538Z,16.47
2018-06-19T03:03:47.534Z,16.54
2018-06-19T03:04:47.532Z,16.53
2018-06-19T03:05:47.534Z,16.66
2018-06-19T03:06:47.528Z,16.66
2018-06-19T03:07:47.526Z,16.58
2018-06-19T03:08:47.525Z,16.57
2018-06-19T03:09:47.524Z,16.50
2018-06-19T03:10:47.521Z,16.56
2018-06-19T03:11:47.521Z,16.56
2018-06-19T03:12:47.523Z,16.53
2018-06-19T03:13:47.518Z,16.57
2018-06-19T03:14:47.517Z,16.49
2018-06-19T03:15:47.515Z,16.56
2018-06-19T03:16:47.512Z,16.50
2018-06-19T03:17:47.511Z,16.50
2018-06-19T03:18:47.510Z,16.50
2018-06-19T03:19:47.512Z,16.39
2018-06-19T03:20:47.506Z,16.50
2018-06-19T03:21:47.518Z,16.47
2018-06-19T03:22:47.504Z,16.39
2018-06-19T03:23:47.513Z,16.36
2018-06-19T03:24:47.499Z,16.36
2018-06-19T03:25:47.499Z,16.29
2018-06-19T03:26:47.501Z,16.26
2018-06-19T03:27:47.497Z,16.36
2018-06-19T03:28:47.492Z,16.26
2018-06-19T03:29:47.492Z,16.17
2018-06-19T03:30:47.493Z,16.17
2018-06-19T03:31:47.493Z,16.21
2018-06-19T03:32:47.495Z,16.15
2018-06-19T03:33:47.487Z,16.12
2018-06-19T03:34:47.488Z,16.00
2018-06-19T03:35:47.483Z,16.05
2018-06-19T03:36:47.481Z,16.01
2018-06-19T03:37:47.481Z,15.95
2018-06-19T03:38:47.479Z,15.94
2018-06-19T03:39:47.477Z,15.88
2018-06-19T03:40:47.474Z,15.94
2018-06-19T03:41:47.479Z,15.80
2018-06-19T03:42:47.473Z,15.75
2018-06-19T03:43:47.470Z,15.82
2018-06-19T03:44:47.469Z,15.83
2018-06-19T03:45:47.466Z,15.90
2018-06-19T03:46:47.466Z,15.83
2018-06-19T03:47:47.465Z,15.86
2018-06-19T03:48:47.463Z,15.82
2018-06-19T03:49:47.460Z,15.82
2018-06-19T03:50:47.460Z,15.83
2018-06-19T03:51:47.458Z,15.83
2018-06-19T03:52:47.454Z,15.80
2018-06-19T03:53:47.474Z,15.73
2018-06-19T03:54:47.454Z,15.80
2018-06-19T03:55:47.451Z,15.82
2018-06-19T03:56:47.447Z,15.80
2018-06-19T03:57:47.446Z,15.76
2018-06-19T03:58:47.445Z,15.90
2018-06-19T03:59:47.444Z,15.82
2018-06-19T04:00:47.441Z,15.88
2018-06-19T04:01:47.440Z,15.83
2018-06-19T04:02:47.437Z,15.86
2018-06-19T04:03:47.438Z,15.91
2018-06-19T04:04:47.435Z,15.91
2018-06-19T04:05:47.441Z,15.86
2018-06-19T04:06:47.430Z,15.94
2018-06-19T04:07:47.431Z,16.04
2018-06-19T04:08:47.423Z,16.01
2018-06-19T04:09:47.425Z,16.09
2018-06-19T04:10:47.425Z,16.04
2018-06-19T04:11:47.423Z,16.04
2018-06-19T04:12:47.419Z,16.04
2018-06-19T04:13:47.419Z,16.02
2018-06-19T04:14:47.419Z,16.02
2018-06-19T04:15:47.415Z,16.00
2018-06-19T04:16:47.412Z,16.10
2018-06-19T04:17:47.411Z,16.10
2018-06-19T04:18:47.410Z,16.08
2018-06-19T04:19:47.409Z,16.05
2018-06-19T04:20:47.406Z,16.13
2018-06-19T04:21:47.406Z,16.16
2018-06-19T04:22:47.404Z,16.23
2018-06-19T04:23:47.402Z,16.20
2018-06-19T04:24:47.403Z,16.24
2018-06-19T04:25:47.398Z,16.28
2018-06-19T04:26:47.397Z,16.28
2018-06-19T04:27:47.395Z,16.33
2018-06-19T04:28:47.392Z,16.32
2018-06-19T04:29:47.392Z,16.36
2018-06-19T04:30:47.391Z,16.36
2018-06-19T04:31:47.388Z,16.39
2018-06-19T04:32:47.386Z,16.42
2018-06-19T04:33:47.385Z,16.38
2018-06-19T04:34:47.380Z,16.39
2018-06-19T04:35:47.383Z,16.38
2018-06-19T04:36:47.380Z,16.46
2018-06-19T04:37:47.379Z,16.56
2018-06-19T04:38:47.377Z,16.53
2018-06-19T04:39:47.376Z,16.54
2018-06-19T04:40:47.374Z,16.46
2018-06-19T04:41:47.372Z,16.51
2018-06-19T04:42:47.369Z,16.64
2018-06-19T04:43:47.381Z,16.66
2018-06-19T04:44:47.375Z,16.56
2018-06-19T04:45:47.367Z,16.53
2018-06-19T04:46:47.364Z,16.57
2018-06-19T04:47:47.362Z,16.68
2018-06-19T04:48:47.360Z,16.66
2018-06-19T04:49:47.412Z,16.65
2018-06-19T04:50:47.358Z,16.72
2018-06-19T04:51:47.358Z,16.75
2018-06-19T04:52:47.355Z,16.72
2018-06-19T04:53:47.357Z,16.69
2018-06-19T04:54:47.357Z,16.74
2018-06-19T04:55:47.352Z,16.75
2018-06-19T04:56:47.348Z,16.75
2018-06-19T04:57:47.347Z,16.72
2018-06-19T04:58:47.343Z,16.76
2018-06-19T04:59:47.349Z,16.74
2018-06-19T05:00:47.341Z,16.83
2018-06-19T05:01:47.343Z,16.84
2018-06-19T05:02:47.340Z,16.79
2018-06-19T05:03:47.397Z,16.87
2018-06-19T05:04:47.337Z,16.93
2018-06-19T05:05:47.334Z,16.93
2018-06-19T05:06:47.333Z,17.01
2018-06-19T05:07:47.332Z,17.09
2018-06-19T05:08:47.331Z,17.15
2018-06-19T05:09:47.332Z,17.09
2018-06-19T05:10:47.329Z,17.19
2018-06-19T05:11:47.325Z,17.12
2018-06-19T05:12:47.382Z,17.20
2018-06-19T05:13:47.323Z,17.22
2018-06-19T05:14:47.322Z,17.24
2018-06-19T05:15:47.320Z,17.24
2018-06-19T05:16:47.319Z,17.26
2018-06-19T05:17:47.317Z,17.41
2018-06-19T05:18:47.316Z,17.44
2018-06-19T05:19:47.315Z,17.49
2018-06-19T05:20:47.312Z,17.46
2018-06-19T05:21:47.311Z,17.52
2018-06-19T05:22:47.309Z,17.67
2018-06-19T05:23:47.315Z,17.67
2018-06-19T05:24:47.309Z,17.83
2018-06-19T05:25:47.306Z,17.87
2018-06-19T05:26:47.303Z,18.04
2018-06-19T05:27:47.304Z,18.07
2018-06-19T05:28:47.301Z,18.23
2018-06-19T05:29:47.300Z,18.15
2018-06-19T05:30:47.300Z,18.35
2018-06-19T05:31:47.299Z,18.37
2018-06-19T05:32:47.296Z,18.52
2018-06-19T05:33:47.295Z,18.60
2018-06-19T05:34:47.295Z,18.70
2018-06-19T05:35:47.296Z,18.68
2018-06-19T05:36:47.292Z,18.71
2018-06-19T05:37:47.290Z,18.66
2018-06-19T05:38:47.289Z,18.83
2018-06-19T05:39:47.288Z,18.80
2018-06-19T05:40:47.284Z,18.88
2018-06-19T05:41:47.283Z,19.12
2018-06-19T05:42:47.283Z,19.21
2018-06-19T05:43:47.282Z,19.22
2018-06-19T05:44:47.281Z,19.19
2018-06-19T05:45:47.280Z,19.37
2018-06-19T05:46:47.280Z,19.39
2018-06-19T05:47:47.279Z,19.49
2018-06-19T05:48:47.275Z,19.56
2018-06-19T05:49:47.278Z,19.56
2018-06-19T05:50:47.276Z,19.58
2018-06-19T05:51:47.274Z,19.45
2018-06-19T05:52:47.287Z,19.52
2018-06-19T05:53:47.271Z,19.54
2018-06-19T05:54:47.272Z,19.64
2018-06-19T05:55:47.272Z,19.55
2018-06-19T05:56:47.270Z,19.59
2018-06-19T05:57:47.268Z,19.62
2018-06-19T05:58:47.269Z,19.62
2018-06-19T05:59:47.265Z,19.70
2018-06-19T06:00:47.266Z,19.70
2018-06-19T06:01:47.265Z,19.70
2018-06-19T06:02:47.263Z,19.62
2018-06-19T06:03:47.263Z,19.74
2018-06-19T06:04:47.261Z,19.73
2018-06-19T06:05:47.328Z,19.79
2018-06-19T06:06:47.261Z,19.85
2018-06-19T06:07:47.259Z,20.00
2018-06-19T06:08:47.262Z,20.00
2018-06-19T06:09:47.256Z,20.07
2018-06-19T06:10:47.258Z,20.09
2018-06-19T06:11:47.256Z,20.13
2018-06-19T06:12:47.253Z,20.14
2018-06-19T06:13:47.252Z,20.19
2018-06-19T06:14:47.252Z,20.14
2018-06-19T06:15:47.252Z,20.16
2018-06-19T06:16:47.250Z,20.22
2018-06-19T06:17:47.248Z,20.31
2018-06-19T06:18:47.249Z,20.28
2018-06-19T06:19:47.252Z,20.31
2018-06-19T06:20:47.245Z,20.39
2018-06-19T06:21:47.247Z,20.44
2018-06-19T06:22:47.246Z,20.47
2018-06-19T06:23:47.246Z,20.47
2018-06-19T06:24:47.243Z,20.43
2018-06-19T06:25:47.244Z,20.41
2018-06-19T06:26:47.242Z,20.32
2018-06-19T06:27:47.244Z,20.31
2018-06-19T06:28:47.240Z,20.34
2018-06-19T06:29:47.241Z,20.31
2018-06-19T06:30:47.240Z,20.31
2018-06-19T06:31:47.238Z,20.31
2018-06-19T06:32:47.237Z,20.32
2018-06-19T06:33:47.236Z,20.41
2018-06-19T06:34:47.236Z,20.39
2018-06-19T06:35:47.235Z,20.40
2018-06-19T06:36:47.236Z,20.44
2018-06-19T06:37:47.232Z,20.51
2018-06-19T06:38:47.234Z,20.56
2018-06-19T06:39:47.231Z,20.66
2018-06-19T06:40:47.230Z,20.65
2018-06-19T06:41:47.228Z,20.70
2018-06-19T06:42:47.229Z,20.74
2018-06-19T06:43:47.229Z,20.75
2018-06-19T06:44:47.231Z,20.87
2018-06-19T06:45:47.228Z,20.87
2018-06-19T06:46:47.228Z,20.84
2018-06-19T06:47:47.226Z,20.90
2018-06-19T06:48:47.228Z,20.93
2018-06-19T06:49:47.224Z,20.96
2018-06-19T06:50:47.224Z,21.03
2018-06-19T06:51:47.223Z,20.96
2018-06-19T06:52:47.222Z,21.02
2018-06-19T06:53:47.221Z,21.03
2018-06-19T06:54:47.222Z,21.03
2018-06-19T06:55:47.220Z,20.99
2018-06-19T06:56:47.220Z,20.85
2018-06-19T06:57:47.217Z,20.82
2018-06-19T06:58:47.219Z,20.96
2018-06-19T06:59:47.216Z,21.05
2018-06-19T07:00:47.217Z,21.00
2018-06-19T07:01:47.217Z,21.02
2018-06-19T07:02:47.229Z,20.96
2018-06-19T07:03:47.215Z,21.06
2018-06-19T07:04:47.215Z,21.05
2018-06-19T07:05:47.217Z,21.12
2018-06-19T07:06:47.213Z,21.12
2018-06-19T07:07:47.226Z,21.18
2018-06-19T07:08:47.213Z,21.22
2018-06-19T07:09:47.211Z,21.27
2018-06-19T07:10:47.212Z,21.29
2018-06-19T07:11:47.215Z,21.25
2018-06-19T07:12:47.209Z,21.17
2018-06-19T07:13:47.211Z,20.97
2018-06-19T07:14:47.212Z,21.05
2018-06-19T07:15:47.243Z,21.02
2018-06-19T07:16:47.208Z,21.20
2018-06-19T07:17:47.208Z,21.18
2018-06-19T07:18:47.208Z,21.11
2018-06-19T07:19:47.210Z,21.27
2018-06-19T07:20:47.206Z,21.30
2018-06-19T07:21:47.209Z,21.15
2018-06-19T07:22:47.204Z,21.15
2018-06-19T07:23:47.207Z,21.06
2018-06-19T07:24:47.205Z,21.20
2018-06-19T07:25:47.218Z,21.22
2018-06-19T07:26:47.203Z,21.25
2018-06-19T07:27:47.203Z,21.29
2018-06-19T07:28:47.203Z,21.29
2018-06-19T07:29:47.204Z,21.48
2018-06-19T07:30:47.219Z,21.48
2018-06-19T07:31:47.204Z,21.60
2018-06-19T07:32:47.201Z,21.57
2018-06-19T07:33:47.202Z,21.61
2018-06-19T07:34:47.202Z,21.40
2018-06-19T07:35:47.199Z,21.50
2018-06-19T07:36:47.234Z,21.64
2018-06-19T07:37:47.247Z,21.61
2018-06-19T07:38:47.199Z,21.52
2018-06-19T07:39:47.203Z,21.48
2018-06-19T07:40:47.199Z,21.43
2018-06-19T07:41:47.199Z,21.46
2018-06-19T07:42:47.197Z,21.55
2018-06-19T07:43:47.222Z,21.42
2018-06-19T07:44:47.199Z,21.40
2018-06-19T07:45:47.201Z,21.43
2018-06-19T07:46:47.199Z,21.55
2018-06-19T07:47:47.197Z,21.66
2018-06-19T07:48:47.196Z,21.72
2018-06-19T07:49:47.198Z,21.91
2018-06-19T07:50:47.199Z,21.75
2018-06-19T07:51:47.202Z,21.69
2018-06-19T07:52:47.196Z,21.76
2018-06-19T07:53:47.196Z,21.89
2018-06-19T07:54:47.195Z,21.82
2018-06-19T07:55:47.193Z,21.91
2018-06-19T07:56:47.196Z,22.02
2018-06-19T07:57:47.195Z,22.04
2018-06-19T07:58:47.195Z,21.96
2018-06-19T07:59:47.196Z,21.85
2018-06-19T08:00:47.194Z,22.07
2018-06-19T08:01:47.201Z,22.10
2018-06-19T08:02:47.195Z,22.15
2018-06-19T08:03:47.198Z,22.20
2018-06-19T08:04:47.195Z,22.20
2018-06-19T08:05:47.197Z,22.44
2018-06-19T08:06:47.197Z,22.47
2018-06-19T08:07:47.197Z,22.41
2018-06-19T08:08:47.196Z,22.36
2018-06-19T08:09:47.198Z,22.11
2018-06-19T08:10:47.196Z,22.08
2018-06-19T08:11:47.198Z,22.17
2018-06-19T08:12:47.198Z,22.26
2018-06-19T08:13:47.197Z,22.25
2018-06-19T08:14:47.201Z,22.23
2018-06-19T08:15:47.198Z,22.35
2018-06-19T08:16:47.199Z,22.43
2018-06-19T08:17:47.201Z,22.39
2018-06-19T08:18:47.230Z,22.36
2018-06-19T08:19:47.201Z,22.43
2018-06-19T08:20:47.201Z,22.59
2018-06-19T08:21:47.201Z,22.60
2018-06-19T08:22:47.246Z,22.70
2018-06-19T08:23:47.204Z,22.94
2018-06-19T08:24:47.197Z,23.03
2018-06-19T08:25:47.205Z,23.03
2018-06-19T08:26:47.205Z,22.81
2018-06-19T08:27:47.208Z,22.76
2018-06-19T08:28:47.719Z,22.60
2018-06-19T08:29:47.209Z,22.59
2018-06-19T08:30:47.220Z,22.54
2018-06-19T08:31:47.214Z,22.66
2018-06-19T08:32:47.213Z,22.68
2018-06-19T08:33:47.213Z,22.84
2018-06-19T08:34:47.214Z,23.08
2018-06-19T08:35:47.215Z,22.81
2018-06-19T08:36:47.217Z,22.78
2018-06-19T08:37:47.220Z,22.63
2018-06-19T08:38:47.219Z,22.53
2018-06-19T08:39:47.221Z,22.53
2018-06-19T08:40:47.226Z,22.53
2018-06-19T08:41:47.231Z,22.78
2018-06-19T08:42:47.230Z,22.80
2018-06-19T08:43:47.224Z,22.96
2018-06-19T08:44:47.224Z,23.02
2018-06-19T08:45:47.226Z,22.96
2018-06-19T08:46:47.231Z,22.88
2018-06-19T08:47:47.229Z,22.80
2018-06-19T08:48:47.233Z,22.84
2018-06-19T08:49:47.230Z,22.80
2018-06-19T08:50:47.234Z,22.72
2018-06-19T08:51:47.234Z,22.78
2018-06-19T08:52:47.234Z,22.63
2018-06-19T08:53:47.238Z,22.78
2018-06-19T08:54:47.239Z,22.73
2018-06-19T08:55:47.239Z,22.85
2018-06-19T08:56:47.239Z,22.81
2018-06-19T08:57:47.240Z,22.83
2018-06-19T08:58:47.243Z,22.78
2018-06-19T08:59:47.247Z,22.81
2018-06-19T09:00:47.248Z,22.88
2018-06-19T09:01:47.252Z,22.98
2018-06-19T09:02:47.248Z,22.94
2018-06-19T09:03:47.251Z,22.96
2018-06-19T09:04:47.249Z,23.02
2018-06-19T09:05:47.252Z,23.06
2018-06-19T09:06:47.254Z,23.06
2018-06-19T09:07:47.255Z,23.09
2018-06-19T09:08:47.258Z,23.20
2018-06-19T09:09:47.260Z,23.15
2018-06-19T09:10:47.260Z,23.10
2018-06-19T09:11:47.268Z,23.10
2018-06-19T09:12:47.263Z,23.09
2018-06-19T09:13:47.267Z,23.08
2018-06-19T09:14:47.268Z,23.20
2018-06-19T09:15:47.269Z,23.08
2018-06-19T09:16:47.270Z,23.03
2018-06-19T09:17:47.272Z,22.98
2018-06-19T09:18:47.280Z,22.94
2018-06-19T09:19:47.277Z,22.76
2018-06-19T09:20:47.279Z,22.70
2018-06-19T09:21:47.290Z,22.65
2018-06-19T09:22:47.281Z,22.60
2018-06-19T09:23:47.289Z,22.62
2018-06-19T09:24:47.285Z,22.51
2018-06-19T09:25:47.288Z,22.62
2018-06-19T09:26:47.288Z,22.63
2018-06-19T09:27:47.291Z,22.60
2018-06-19T09:28:47.291Z,22.57
2018-06-19T09:29:47.294Z,22.55
2018-06-19T09:30:47.293Z,22.48
2018-06-19T09:31:47.299Z,22.39
2018-06-19T09:32:47.298Z,22.39
2018-06-19T09:33:47.298Z,22.48
2018-06-19T09:34:47.300Z,22.48
2018-06-19T09:35:47.299Z,22.25
2018-06-19T09:36:47.303Z,22.35
2018-06-19T09:37:47.302Z,22.23
2018-06-19T09:38:47.303Z,22.25
2018-06-19T09:39:47.359Z,22.23
2018-06-19T09:40:47.306Z,22.35
2018-06-19T09:41:47.313Z,22.43
2018-06-19T09:42:47.309Z,22.44
2018-06-19T09:43:47.311Z,22.43
2018-06-19T09:44:47.311Z,22.45
2018-06-19T09:45:47.314Z,22.51
2018-06-19T09:46:47.315Z,22.47
2018-06-19T09:47:47.313Z,22.39
2018-06-19T09:48:47.315Z,22.50
2018-06-19T09:49:47.318Z,22.60
2018-06-19T09:50:47.317Z,22.57
2018-06-19T09:51:47.323Z,22.62
2018-06-19T09:52:47.320Z,22.50
2018-06-19T09:53:47.338Z,22.50
2018-06-19T09:54:47.326Z,22.55
2018-06-19T09:55:47.331Z,22.55
2018-06-19T09:56:47.327Z,22.63
2018-06-19T09:57:47.326Z,22.55
2018-06-19T09:58:47.327Z,22.59
2018-06-19T09:59:47.335Z,22.55
2018-06-19T10:00:47.331Z,22.66
2018-06-19T10:01:47.334Z,22.72
2018-06-19T10:02:47.332Z,22.83
2018-06-19T10:03:47.336Z,22.76
2018-06-19T10:04:47.337Z,22.75
2018-06-19T10:05:47.381Z,22.70
2018-06-19T10:06:47.342Z,22.80
2018-06-19T10:07:47.343Z,22.76
2018-06-19T10:08:47.344Z,22.70
2018-06-19T10:09:47.349Z,22.69
2018-06-19T10:10:47.346Z,22.83
2018-06-19T10:11:47.350Z,22.84
2018-06-19T10:12:47.349Z,22.87
2018-06-19T10:13:47.350Z,22.83
2018-06-19T10:14:47.353Z,22.78
2018-06-19T10:15:47.356Z,22.91
2018-06-19T10:16:47.356Z,22.88
2018-06-19T10:17:47.357Z,23.05
2018-06-19T10:18:47.359Z,23.08
2018-06-19T10:19:47.361Z,23.08
2018-06-19T10:20:47.363Z,23.10
2018-06-19T10:21:47.368Z,23.13
2018-06-19T10:22:47.367Z,23.20
2018-06-19T10:23:47.370Z,23.20
2018-06-19T10:24:47.372Z,23.13
2018-06-19T10:25:47.370Z,23.06
2018-06-19T10:26:47.374Z,23.09
2018-06-19T10:27:47.376Z,23.17
2018-06-19T10:28:47.378Z,23.10
2018-06-19T10:29:47.375Z,23.13
2018-06-19T10:30:48.198Z,23.06
2018-06-19T10:31:47.383Z,23.08
2018-06-19T10:32:47.386Z,22.84
2018-06-19T10:33:47.387Z,22.76
2018-06-19T10:34:47.392Z,22.84
2018-06-19T10:35:47.393Z,22.94
2018-06-19T10:36:47.392Z,22.84
2018-06-19T10:37:47.398Z,22.91
2018-06-19T10:38:47.398Z,22.91
2018-06-19T10:39:47.401Z,23.05
2018-06-19T10:40:47.402Z,23.13
2018-06-19T10:41:47.403Z,23.15
2018-06-19T10:42:47.407Z,23.17
2018-06-19T10:43:47.407Z,23.00
2018-06-19T10:44:47.410Z,23.02
2018-06-19T10:45:47.407Z,23.05
2018-06-19T10:46:47.412Z,23.09
2018-06-19T10:47:47.413Z,23.09
2018-06-19T10:48:47.418Z,23.05
2018-06-19T10:49:47.422Z,23.09
2018-06-19T10:50:47.422Z,22.99
2018-06-19T10:51:47.424Z,22.99
2018-06-19T10:52:47.469Z,23.13
2018-06-19T10:53:47.427Z,23.05
2018-06-19T10:54:47.430Z,23.08
2018-06-19T10:55:47.432Z,23.12
2018-06-19T10:56:47.432Z,23.02
2018-06-19T10:57:47.433Z,23.12
2018-06-19T10:58:47.437Z,23.20
2018-06-19T10:59:47.440Z,23.32
2018-06-19T11:00:47.440Z,23.41
2018-06-19T11:01:47.444Z,23.34
2018-06-19T11:02:47.446Z,23.41
2018-06-19T11:03:47.449Z,23.44
2018-06-19T11:04:47.451Z,23.40
2018-06-19T11:05:47.462Z,23.46
2018-06-19T11:06:47.454Z,23.46
2018-06-19T11:07:47.455Z,23.50
2018-06-19T11:08:47.459Z,23.50
2018-06-19T11:09:47.461Z,23.44
2018-06-19T11:10:47.463Z,23.63
2018-06-19T11:11:47.466Z,23.56
2018-06-19T11:12:47.467Z,23.58
2018-06-19T11:13:47.475Z,23.78
2018-06-19T11:14:47.473Z,23.98
2018-06-19T11:15:47.480Z,23.99
2018-06-19T11:16:47.480Z,24.23
2018-06-19T11:17:47.481Z,24.58
2018-06-19T11:18:47.483Z,24.91
2018-06-19T11:19:47.487Z,25.17
2018-06-19T11:20:47.488Z,25.40
2018-06-19T11:21:47.494Z,25.77
2018-06-19T11:22:47.498Z,25.80
2018-06-19T11:23:47.496Z,25.59
2018-06-19T11:24:47.500Z,25.48
2018-06-19T11:25:47.568Z,25.60
2018-06-19T11:26:47.507Z,25.80
2018-06-19T11:27:47.508Z,26.00
2018-06-19T11:28:47.514Z,26.47
2018-06-19T11:29:47.523Z,26.81
2018-06-19T11:30:47.517Z,27.02
2018-06-19T11:31:47.522Z,27.51
2018-06-19T11:32:47.525Z,27.89
2018-06-19T11:33:47.527Z,27.55
2018-06-19T11:34:47.533Z,27.21
2018-06-19T11:35:47.539Z,26.52
2018-06-19T11:36:47.553Z,25.78
2018-06-19T11:37:47.547Z,25.28
2018-06-19T11:38:47.548Z,25.07
2018-06-19T11:39:47.555Z,25.32
2018-06-19T11:40:47.556Z,25.53
2018-06-19T11:41:47.559Z,25.43
2018-06-19T11:42:47.568Z,25.47
2018-06-19T11:43:47.571Z,25.06
2018-06-19T11:44:47.635Z,24.89
2018-06-19T11:45:47.579Z,24.88
2018-06-19T11:46:47.582Z,24.86
2018-06-19T11:47:47.586Z,24.99
2018-06-19T11:48:47.592Z,25.14
2018-06-19T11:49:47.593Z,25.01
2018-06-19T11:50:47.602Z,24.78
2018-06-19T11:51:47.601Z,24.84
2018-06-19T11:52:47.604Z,24.80
2018-06-19T11:53:47.610Z,24.68
2018-06-19T11:54:47.615Z,24.73
2018-06-19T11:55:47.619Z,24.85
2018-06-19T11:56:47.662Z,24.91
2018-06-19T11:57:47.626Z,25.11
2018-06-19T11:58:47.633Z,25.03
2018-06-19T11:59:47.635Z,25.07
2018-06-19T12:00:47.638Z,25.01
2018-06-19T12:01:47.697Z,25.21
2018-06-19T12:02:47.648Z,25.26
2018-06-19T12:03:47.654Z,25.17
2018-06-19T12:04:47.656Z,25.13
2018-06-19T12:05:47.663Z,25.32
2018-06-19T12:06:47.684Z,25.32
2018-06-19T12:07:47.669Z,25.53
2018-06-19T12:08:47.674Z,25.54
2018-06-19T12:09:47.676Z,25.55
2018-06-19T12:10:47.681Z,25.47
2018-06-19T12:11:47.685Z,25.63
2018-06-19T12:12:47.687Z,25.43
2018-06-19T12:13:47.694Z,25.35
2018-06-19T12:14:47.699Z,25.47
2018-06-19T12:15:47.701Z,25.51
2018-06-19T12:16:47.703Z,25.35
2018-06-19T12:17:47.708Z,25.29
2018-06-19T12:18:47.712Z,25.32
2018-06-19T12:19:47.714Z,25.14
2018-06-19T12:20:47.721Z,24.95
2018-06-19T12:21:47.723Z,24.84
2018-06-19T12:22:47.728Z,25.01
2018-06-19T12:23:47.735Z,24.93
2018-06-19T12:24:47.736Z,24.89
2018-06-19T12:25:47.738Z,25.04
2018-06-19T12:26:47.743Z,25.04
2018-06-19T12:27:47.750Z,25.04
2018-06-19T12:28:47.753Z,24.86
2018-06-19T12:29:47.753Z,24.93
2018-06-19T12:30:47.759Z,25.04
2018-06-19T12:31:47.760Z,24.91
2018-06-19T12:32:47.767Z,24.91
2018-06-19T12:33:47.768Z,25.06
2018-06-19T12:34:47.771Z,24.88
2018-06-19T12:35:47.775Z,25.13
2018-06-19T12:36:47.779Z,25.40
2018-06-19T12:37:47.782Z,25.47
2018-06-19T12:38:47.787Z,25.80
2018-06-19T12:39:47.793Z,25.87
2018-06-19T12:40:47.795Z,25.88
2018-06-19T12:41:47.797Z,25.88
2018-06-19T12:42:47.802Z,25.73
2018-06-19T12:43:47.807Z,25.78
2018-06-19T12:44:47.837Z,26.03
2018-06-19T12:45:47.815Z,26.21
2018-06-19T12:46:47.849Z,26.21
2018-06-19T12:47:47.823Z,26.05
2018-06-19T12:48:47.826Z,25.99
2018-06-19T12:49:47.857Z,25.98
2018-06-19T12:50:47.836Z,25.73
2018-06-19T12:51:47.843Z,25.77
2018-06-19T12:52:47.842Z,25.81